createdAt,value
2018-05-15T00:00:35.953Z,936.84
2018-05-15T00:01:35.946Z,936.89
2018-05-15T00:02:35.936Z,936.88
2018-05-15T00:03:35.927Z,936.88
2018-05-15T00:04:35.924Z,936.90
2018-05-15T00:05:35.912Z,936.86
2018-05-15T00:06:35.904Z,936.88
2018-05-15T00:07:35.996Z,936.85
2018-05-15T00:08:35.893Z,936.86
2018-05-15T00:09:35.879Z,936.85
2018-05-15T00:10:35.871Z,936.82
2018-05-15T00:11:35.862Z,936.85
2018-05-15T00:12:35.855Z,936.85
2018-05-15T00:13:35.846Z,936.81
2018-05-15T00:14:35.843Z,936.77
2018-05-15T00:15:35.833Z,936.81
2018-05-15T00:16:35.821Z,936.83
2018-05-15T00:17:35.816Z,936.83
2018-05-15T00:18:35.804Z,936.80
2018-05-15T00:19:35.796Z,936.81
2018-05-15T00:20:35.790Z,936.82
2018-05-15T00:21:35.781Z,936.81
2018-05-15T00:22:35.773Z,936.77
2018-05-15T00:23:35.765Z,936.77
2018-05-15T00:24:35.756Z,936.76
2018-05-15T00:25:35.848Z,936.79
2018-05-15T00:26:35.737Z,936.78
2018-05-15T00:27:35.731Z,936.78
2018-05-15T00:28:35.723Z,936.81
2018-05-15T00:29:35.715Z,936.75
2018-05-15T00:30:35.707Z,936.76
2018-05-15T00:31:35.799Z,936.77
2018-05-15T00:32:35.697Z,936.72
2018-05-15T00:33:35.682Z,936.76
2018-05-15T00:34:35.673Z,936.73
2018-05-15T00:35:35.666Z,936.75
2018-05-15T00:36:35.660Z,936.72
2018-05-15T00:37:35.650Z,936.72
2018-05-15T00:38:35.641Z,936.74
2018-05-15T00:39:35.633Z,936.74
2018-05-15T00:40:35.626Z,936.76
2018-05-15T00:41:35.617Z,936.76
2018-05-15T00:42:35.609Z,936.80
2018-05-15T00:43:35.600Z,936.83
2018-05-15T00:44:35.592Z,936.84
2018-05-15T00:45:35.585Z,936.78
2018-05-15T00:46:35.576Z,936.79
2018-05-15T00:47:35.566Z,936.80
2018-05-15T00:48:35.560Z,936.75
2018-05-15T00:49:35.552Z,936.76
2018-05-15T00:50:35.542Z,936.72
2018-05-15T00:51:35.568Z,936.69
2018-05-15T00:52:35.526Z,936.72
2018-05-15T00:53:35.519Z,936.72
2018-05-15T00:54:35.509Z,936.71
2018-05-15T00:55:35.602Z,936.73
2018-05-15T00:56:35.494Z,936.68
2018-05-15T00:57:35.486Z,936.69
2018-05-15T00:58:35.477Z,936.66
2018-05-15T00:59:35.469Z,936.64
2018-05-15T01:00:35.462Z,936.61
2018-05-15T01:01:35.554Z,936.61
2018-05-15T01:02:35.446Z,936.59
2018-05-15T01:03:35.437Z,936.58
2018-05-15T01:04:35.429Z,936.58
2018-05-15T01:05:35.422Z,936.59
2018-05-15T01:06:35.412Z,936.58
2018-05-15T01:07:35.504Z,936.57
2018-05-15T01:08:35.400Z,936.56
2018-05-15T01:09:35.390Z,936.58
2018-05-15T01:10:35.381Z,936.58
2018-05-15T01:11:35.373Z,936.60
2018-05-15T01:12:35.364Z,936.61
2018-05-15T01:13:35.358Z,936.65
2018-05-15T01:14:35.354Z,936.64
2018-05-15T01:15:35.340Z,936.62
2018-05-15T01:16:35.332Z,936.65
2018-05-15T01:17:35.323Z,936.67
2018-05-15T01:18:35.315Z,936.66
2018-05-15T01:19:35.308Z,936.62
2018-05-15T01:20:35.301Z,936.61
2018-05-15T01:21:35.294Z,936.65
2018-05-15T01:22:35.283Z,936.61
2018-05-15T01:23:35.275Z,936.62
2018-05-15T01:24:35.268Z,936.62
2018-05-15T01:25:35.360Z,936.64
2018-05-15T01:26:35.253Z,936.59
2018-05-15T01:27:35.244Z,936.58
2018-05-15T01:28:35.234Z,936.57
2018-05-15T01:29:35.227Z,936.57
2018-05-15T01:30:35.220Z,936.58
2018-05-15T01:31:35.212Z,936.62
2018-05-15T01:32:35.205Z,936.56
2018-05-15T01:33:35.196Z,936.51
2018-05-15T01:34:35.186Z,936.55
2018-05-15T01:35:35.178Z,936.53
2018-05-15T01:36:35.176Z,936.51
2018-05-15T01:37:35.166Z,936.48
2018-05-15T01:38:35.154Z,936.44
2018-05-15T01:39:35.146Z,936.46
2018-05-15T01:40:35.138Z,936.47
2018-05-15T01:41:35.131Z,936.46
2018-05-15T01:42:35.122Z,936.49
2018-05-15T01:43:35.114Z,936.48
2018-05-15T01:44:35.106Z,936.44
2018-05-15T01:45:35.098Z,936.45
2018-05-15T01:46:35.090Z,936.44
2018-05-15T01:47:35.081Z,936.40
2018-05-15T01:48:35.073Z,936.39
2018-05-15T01:49:35.168Z,936.39
2018-05-15T01:50:35.056Z,936.37
2018-05-15T01:51:35.049Z,936.39
2018-05-15T01:52:35.042Z,936.40
2018-05-15T01:53:35.032Z,936.38
2018-05-15T01:54:35.023Z,936.36
2018-05-15T01:55:35.015Z,936.36
2018-05-15T01:56:35.007Z,936.36
2018-05-15T01:57:35.002Z,936.34
2018-05-15T01:58:34.989Z,936.35
2018-05-15T01:59:34.982Z,936.34
2018-05-15T02:00:34.978Z,936.36
2018-05-15T02:01:35.067Z,936.41
2018-05-15T02:02:34.956Z,936.41
2018-05-15T02:03:34.948Z,936.40
2018-05-15T02:04:34.940Z,936.40
2018-05-15T02:05:34.933Z,936.37
2018-05-15T02:06:34.924Z,936.36
2018-05-15T02:07:34.916Z,936.33
2018-05-15T02:08:34.910Z,936.35
2018-05-15T02:09:34.899Z,936.33
2018-05-15T02:10:34.891Z,936.34
2018-05-15T02:11:34.881Z,936.33
2018-05-15T02:12:34.875Z,936.32
2018-05-15T02:13:34.866Z,936.29
2018-05-15T02:14:34.859Z,936.27
2018-05-15T02:15:34.849Z,936.25
2018-05-15T02:16:34.841Z,936.27
2018-05-15T02:17:34.833Z,936.23
2018-05-15T02:18:34.824Z,936.23
2018-05-15T02:19:34.917Z,936.19
2018-05-15T02:20:34.808Z,936.22
2018-05-15T02:21:34.801Z,936.21
2018-05-15T02:22:34.791Z,936.22
2018-05-15T02:23:34.784Z,936.20
2018-05-15T02:24:34.777Z,936.15
2018-05-15T02:25:34.868Z,936.12
2018-05-15T02:26:34.758Z,936.13
2018-05-15T02:27:34.750Z,936.11
2018-05-15T02:28:34.745Z,936.11
2018-05-15T02:29:34.734Z,936.03
2018-05-15T02:30:34.843Z,936.08
2018-05-15T02:31:34.818Z,936.06
2018-05-15T02:32:34.709Z,936.04
2018-05-15T02:33:34.701Z,935.99
2018-05-15T02:34:34.698Z,936.02
2018-05-15T02:35:34.684Z,936.01
2018-05-15T02:36:34.676Z,936.02
2018-05-15T02:37:34.768Z,936.00
2018-05-15T02:38:34.659Z,935.96
2018-05-15T02:39:34.651Z,935.97
2018-05-15T02:40:34.642Z,935.94
2018-05-15T02:41:34.635Z,935.96
2018-05-15T02:42:34.627Z,935.91
2018-05-15T02:43:34.617Z,935.90
2018-05-15T02:44:34.609Z,935.90
2018-05-15T02:45:34.600Z,935.87
2018-05-15T02:46:34.590Z,935.85
2018-05-15T02:47:34.589Z,935.85
2018-05-15T02:48:34.576Z,935.86
2018-05-15T02:49:34.568Z,935.89
2018-05-15T02:50:34.559Z,935.91
2018-05-15T02:51:34.552Z,935.88
2018-05-15T02:52:34.542Z,935.90
2018-05-15T02:53:34.536Z,935.88
2018-05-15T02:54:34.526Z,935.87
2018-05-15T02:55:34.718Z,935.90
2018-05-15T02:56:34.509Z,935.84
2018-05-15T02:57:34.504Z,935.86
2018-05-15T02:58:34.492Z,935.81
2018-05-15T02:59:34.485Z,935.82
2018-05-15T03:00:34.476Z,935.83
2018-05-15T03:01:34.467Z,935.83
2018-05-15T03:02:34.459Z,935.80
2018-05-15T03:03:34.451Z,935.83
2018-05-15T03:04:34.443Z,935.83
2018-05-15T03:05:34.433Z,935.81
2018-05-15T03:06:34.424Z,935.79
2018-05-15T03:07:34.421Z,935.79
2018-05-15T03:08:34.413Z,935.80
2018-05-15T03:09:34.400Z,935.80
2018-05-15T03:10:34.391Z,935.79
2018-05-15T03:11:34.405Z,935.76
2018-05-15T03:12:34.373Z,935.81
2018-05-15T03:13:34.371Z,935.85
2018-05-15T03:14:34.357Z,935.86
2018-05-15T03:15:34.349Z,935.86
2018-05-15T03:16:34.349Z,935.89
2018-05-15T03:17:34.332Z,935.87
2018-05-15T03:18:34.323Z,935.89
2018-05-15T03:19:34.315Z,935.90
2018-05-15T03:20:34.311Z,935.90
2018-05-15T03:21:34.300Z,935.91
2018-05-15T03:22:34.289Z,935.87
2018-05-15T03:23:34.279Z,935.92
2018-05-15T03:24:34.273Z,935.89
2018-05-15T03:25:34.365Z,935.88
2018-05-15T03:26:34.255Z,935.85
2018-05-15T03:27:34.250Z,935.82
2018-05-15T03:28:34.239Z,935.86
2018-05-15T03:29:34.232Z,935.84
2018-05-15T03:30:34.223Z,935.82
2018-05-15T03:31:34.213Z,935.79
2018-05-15T03:32:34.203Z,935.78
2018-05-15T03:33:34.203Z,935.83
2018-05-15T03:34:34.186Z,935.82
2018-05-15T03:35:34.180Z,935.81
2018-05-15T03:36:34.169Z,935.83
2018-05-15T03:37:34.163Z,935.87
2018-05-15T03:38:34.154Z,935.87
2018-05-15T03:39:34.143Z,935.86
2018-05-15T03:40:34.137Z,935.85
2018-05-15T03:41:34.129Z,935.89
2018-05-15T03:42:34.119Z,935.85
2018-05-15T03:43:34.110Z,935.82
2018-05-15T03:44:34.104Z,935.82
2018-05-15T03:45:34.096Z,935.86
2018-05-15T03:46:34.086Z,935.89
2018-05-15T03:47:34.078Z,935.86
2018-05-15T03:48:34.069Z,935.84
2018-05-15T03:49:34.062Z,935.85
2018-05-15T03:50:34.053Z,935.88
2018-05-15T03:51:34.045Z,935.91
2018-05-15T03:52:34.038Z,935.89
2018-05-15T03:53:34.029Z,935.87
2018-05-15T03:54:34.020Z,935.85
2018-05-15T03:55:34.111Z,935.87
2018-05-15T03:56:34.003Z,935.82
2018-05-15T03:57:34.059Z,935.88
2018-05-15T03:58:33.987Z,935.86
2018-05-15T03:59:33.979Z,935.82
2018-05-15T04:00:33.970Z,935.79
2018-05-15T04:01:34.063Z,935.80
2018-05-15T04:02:33.952Z,935.84
2018-05-15T04:03:33.945Z,935.82
2018-05-15T04:04:33.936Z,935.83
2018-05-15T04:05:33.929Z,935.82
2018-05-15T04:06:33.918Z,935.83
2018-05-15T04:07:34.012Z,935.86
2018-05-15T04:08:33.989Z,935.85
2018-05-15T04:09:33.895Z,935.85
2018-05-15T04:10:33.887Z,935.83
2018-05-15T04:11:33.879Z,935.83
2018-05-15T04:12:33.871Z,935.87
2018-05-15T04:13:33.863Z,935.85
2018-05-15T04:14:33.855Z,935.82
2018-05-15T04:15:33.846Z,935.85
2018-05-15T04:16:33.838Z,935.85
2018-05-15T04:17:33.831Z,935.83
2018-05-15T04:18:33.821Z,935.81
2018-05-15T04:19:33.914Z,935.81
2018-05-15T04:20:33.806Z,935.81
2018-05-15T04:21:33.797Z,935.80
2018-05-15T04:22:33.789Z,935.78
2018-05-15T04:23:33.788Z,935.76
2018-05-15T04:24:33.773Z,935.77
2018-05-15T04:25:33.865Z,935.73
2018-05-15T04:26:33.756Z,935.72
2018-05-15T04:27:33.749Z,935.72
2018-05-15T04:28:33.740Z,935.71
2018-05-15T04:29:33.733Z,935.72
2018-05-15T04:30:33.726Z,935.69
2018-05-15T04:31:33.715Z,935.66
2018-05-15T04:32:33.709Z,935.68
2018-05-15T04:33:33.701Z,935.68
2018-05-15T04:34:33.692Z,935.63
2018-05-15T04:35:33.683Z,935.63
2018-05-15T04:36:33.676Z,935.63
2018-05-15T04:37:33.668Z,935.60
2018-05-15T04:38:33.661Z,935.59
2018-05-15T04:39:33.652Z,935.53
2018-05-15T04:40:33.644Z,935.52
2018-05-15T04:41:33.636Z,935.50
2018-05-15T04:42:33.626Z,935.49
2018-05-15T04:43:33.735Z,935.46
2018-05-15T04:44:33.612Z,935.46
2018-05-15T04:45:33.604Z,935.44
2018-05-15T04:46:33.594Z,935.47
2018-05-15T04:47:33.588Z,935.40
2018-05-15T04:48:33.579Z,935.35
2018-05-15T04:49:33.571Z,935.39
2018-05-15T04:50:33.562Z,935.37
2018-05-15T04:51:33.555Z,935.41
2018-05-15T04:52:33.547Z,935.37
2018-05-15T04:53:33.541Z,935.43
2018-05-15T04:54:33.533Z,935.39
2018-05-15T04:55:33.722Z,935.39
2018-05-15T04:56:33.515Z,935.41
2018-05-15T04:57:33.505Z,935.45
2018-05-15T04:58:33.501Z,935.44
2018-05-15T04:59:33.489Z,935.43
2018-05-15T05:00:33.481Z,935.43
2018-05-15T05:01:33.572Z,935.42
2018-05-15T05:02:33.464Z,935.45
2018-05-15T05:03:33.456Z,935.41
2018-05-15T05:04:33.448Z,935.40
2018-05-15T05:05:33.441Z,935.44
2018-05-15T05:06:33.431Z,935.42
2018-05-15T05:07:33.424Z,935.44
2018-05-15T05:08:33.415Z,935.38
2018-05-15T05:09:33.406Z,935.40
2018-05-15T05:10:33.398Z,935.38
2018-05-15T05:11:33.390Z,935.36
2018-05-15T05:12:33.382Z,935.35
2018-05-15T05:13:33.374Z,935.38
2018-05-15T05:14:33.365Z,935.41
2018-05-15T05:15:33.357Z,935.36
2018-05-15T05:16:33.349Z,935.36
2018-05-15T05:17:33.340Z,935.37
2018-05-15T05:18:33.331Z,935.33
2018-05-15T05:19:33.323Z,935.34
2018-05-15T05:20:33.316Z,935.27
2018-05-15T05:21:33.306Z,935.29
2018-05-15T05:22:33.297Z,935.23
2018-05-15T05:23:33.308Z,935.21
2018-05-15T05:24:33.284Z,935.23
2018-05-15T05:25:33.473Z,935.22
2018-05-15T05:26:33.267Z,935.21
2018-05-15T05:27:33.253Z,935.20
2018-05-15T05:28:33.247Z,935.22
2018-05-15T05:29:33.237Z,935.20
2018-05-15T05:30:33.227Z,935.22
2018-05-15T05:31:33.222Z,935.21
2018-05-15T05:32:33.212Z,935.21
2018-05-15T05:33:33.207Z,935.22
2018-05-15T05:34:33.195Z,935.25
2018-05-15T05:35:33.187Z,935.27
2018-05-15T05:36:33.178Z,935.24
2018-05-15T05:37:33.170Z,935.26
2018-05-15T05:38:33.160Z,935.24
2018-05-15T05:39:33.152Z,935.29
2018-05-15T05:40:33.144Z,935.29
2018-05-15T05:41:33.135Z,935.28
2018-05-15T05:42:33.126Z,935.25
2018-05-15T05:43:33.118Z,935.25
2018-05-15T05:44:33.109Z,935.23
2018-05-15T05:45:33.101Z,935.26
2018-05-15T05:46:33.092Z,935.27
2018-05-15T05:47:33.084Z,935.25
2018-05-15T05:48:33.075Z,935.24
2018-05-15T05:49:33.178Z,935.23
2018-05-15T05:50:33.058Z,935.26
2018-05-15T05:51:33.051Z,935.24
2018-05-15T05:52:33.042Z,935.26
2018-05-15T05:53:33.034Z,935.21
2018-05-15T05:54:33.025Z,935.18
2018-05-15T05:55:33.116Z,935.12
2018-05-15T05:56:33.012Z,935.13
2018-05-15T05:57:33.000Z,935.14
2018-05-15T05:58:32.989Z,935.13
2018-05-15T05:59:32.982Z,935.13
2018-05-15T06:00:32.974Z,935.14
2018-05-15T06:01:33.167Z,935.11
2018-05-15T06:02:32.958Z,935.12
2018-05-15T06:03:32.949Z,935.06
2018-05-15T06:04:32.942Z,935.09
2018-05-15T06:05:32.933Z,935.09
2018-05-15T06:06:32.927Z,935.07
2018-05-15T06:07:32.914Z,935.09
2018-05-15T06:08:32.907Z,935.04
2018-05-15T06:09:32.899Z,935.04
2018-05-15T06:10:32.890Z,935.02
2018-05-15T06:11:32.886Z,935.01
2018-05-15T06:12:32.873Z,934.99
2018-05-15T06:13:33.065Z,935.01
2018-05-15T06:14:32.856Z,935.03
2018-05-15T06:15:32.846Z,935.06
2018-05-15T06:16:32.840Z,935.03
2018-05-15T06:17:32.835Z,935.04
2018-05-15T06:18:32.822Z,935.05
2018-05-15T06:19:32.914Z,935.05
2018-05-15T06:20:32.805Z,935.02
2018-05-15T06:21:32.798Z,935.04
2018-05-15T06:22:32.789Z,935.03
2018-05-15T06:23:32.781Z,934.99
2018-05-15T06:24:32.773Z,934.96
2018-05-15T06:25:32.764Z,934.96
2018-05-15T06:26:32.755Z,934.96
2018-05-15T06:27:32.769Z,935.01
2018-05-15T06:28:32.738Z,934.93
2018-05-15T06:29:32.730Z,934.97
2018-05-15T06:30:32.722Z,934.92
2018-05-15T06:31:32.914Z,934.93
2018-05-15T06:32:32.706Z,934.93
2018-05-15T06:33:32.697Z,934.91
2018-05-15T06:34:32.688Z,934.87
2018-05-15T06:35:32.680Z,934.91
2018-05-15T06:36:32.671Z,934.84
2018-05-15T06:37:32.863Z,934.76
2018-05-15T06:38:32.703Z,934.84
2018-05-15T06:39:32.646Z,934.85
2018-05-15T06:40:32.638Z,934.81
2018-05-15T06:41:32.630Z,934.85
2018-05-15T06:42:32.618Z,934.83
2018-05-15T06:43:32.611Z,934.87
2018-05-15T06:44:32.604Z,934.87
2018-05-15T06:45:32.596Z,934.90
2018-05-15T06:46:32.586Z,934.87
2018-05-15T06:47:32.578Z,934.89
2018-05-15T06:48:32.569Z,934.90
2018-05-15T06:49:32.661Z,934.92
2018-05-15T06:50:32.552Z,934.93
2018-05-15T06:51:32.542Z,934.94
2018-05-15T06:52:32.539Z,934.93
2018-05-15T06:53:32.527Z,934.94
2018-05-15T06:54:32.517Z,934.91
2018-05-15T06:55:32.509Z,934.89
2018-05-15T06:56:32.501Z,934.89
2018-05-15T06:57:32.492Z,934.92
2018-05-15T06:58:32.484Z,934.92
2018-05-15T06:59:32.475Z,934.90
2018-05-15T07:00:32.467Z,934.87
2018-05-15T07:01:32.460Z,934.88
2018-05-15T07:02:32.450Z,934.81
2018-05-15T07:03:32.442Z,934.87
2018-05-15T07:04:32.433Z,934.90
2018-05-15T07:05:32.425Z,934.89
2018-05-15T07:06:32.420Z,934.93
2018-05-15T07:07:32.409Z,934.90
2018-05-15T07:08:32.401Z,934.95
2018-05-15T07:09:32.390Z,934.97
2018-05-15T07:10:32.383Z,934.97
2018-05-15T07:11:32.374Z,935.00
2018-05-15T07:12:32.366Z,934.94
2018-05-15T07:13:32.458Z,934.98
2018-05-15T07:14:32.351Z,934.94
2018-05-15T07:15:32.340Z,934.95
2018-05-15T07:16:32.336Z,934.92
2018-05-15T07:17:32.325Z,934.94
2018-05-15T07:18:32.316Z,934.94
2018-05-15T07:19:32.376Z,934.91
2018-05-15T07:20:32.301Z,934.92
2018-05-15T07:21:32.292Z,934.92
2018-05-15T07:22:32.282Z,934.93
2018-05-15T07:23:32.274Z,934.91
2018-05-15T07:24:32.272Z,934.94
2018-05-15T07:25:32.458Z,934.89
2018-05-15T07:26:32.248Z,934.85
2018-05-15T07:27:32.241Z,934.85
2018-05-15T07:28:32.236Z,934.89
2018-05-15T07:29:32.225Z,934.89
2018-05-15T07:30:32.213Z,934.87
2018-05-15T07:31:32.206Z,934.94
2018-05-15T07:32:32.198Z,934.91
2018-05-15T07:33:32.190Z,934.93
2018-05-15T07:34:32.180Z,934.84
2018-05-15T07:35:32.173Z,934.92
2018-05-15T07:36:32.168Z,934.90
2018-05-15T07:37:32.257Z,934.90
2018-05-15T07:38:32.148Z,934.88
2018-05-15T07:39:32.138Z,934.84
2018-05-15T07:40:32.133Z,934.84
2018-05-15T07:41:32.124Z,934.84
2018-05-15T07:42:32.114Z,934.84
2018-05-15T07:43:32.306Z,934.92
2018-05-15T07:44:32.098Z,934.90
2018-05-15T07:45:32.090Z,934.94
2018-05-15T07:46:32.082Z,934.97
2018-05-15T07:47:32.072Z,934.96
2018-05-15T07:48:32.065Z,934.98
2018-05-15T07:49:32.156Z,934.95
2018-05-15T07:50:32.047Z,934.97
2018-05-15T07:51:32.037Z,935.01
2018-05-15T07:52:32.031Z,934.99
2018-05-15T07:53:32.040Z,935.00
2018-05-15T07:54:32.012Z,935.04
2018-05-15T07:55:32.003Z,935.04
2018-05-15T07:56:31.996Z,935.08
2018-05-15T07:57:31.992Z,935.10
2018-05-15T07:58:31.977Z,935.11
2018-05-15T07:59:31.969Z,935.14
2018-05-15T08:00:31.962Z,935.17
2018-05-15T08:01:32.054Z,935.17
2018-05-15T08:02:32.023Z,935.19
2018-05-15T08:03:31.935Z,935.23
2018-05-15T08:04:31.934Z,935.21
2018-05-15T08:05:31.919Z,935.27
2018-05-15T08:06:31.909Z,935.26
2018-05-15T08:07:32.102Z,935.31
2018-05-15T08:08:31.892Z,935.33
2018-05-15T08:09:31.885Z,935.31
2018-05-15T08:10:31.874Z,935.34
2018-05-15T08:11:31.867Z,935.34
2018-05-15T08:12:31.859Z,935.36
2018-05-15T08:13:31.951Z,935.38
2018-05-15T08:14:31.842Z,935.36
2018-05-15T08:15:31.833Z,935.35
2018-05-15T08:16:31.825Z,935.35
2018-05-15T08:17:31.816Z,935.37
2018-05-15T08:18:31.808Z,935.36
2018-05-15T08:19:31.799Z,935.37
2018-05-15T08:20:31.791Z,935.36
2018-05-15T08:21:31.782Z,935.37
2018-05-15T08:22:31.818Z,935.34
2018-05-15T08:23:31.766Z,935.39
2018-05-15T08:24:31.755Z,935.40
2018-05-15T08:25:31.749Z,935.42
2018-05-15T08:26:31.741Z,935.43
2018-05-15T08:27:31.731Z,935.39
2018-05-15T08:28:31.723Z,935.46
2018-05-15T08:29:31.716Z,935.45
2018-05-15T08:30:31.706Z,935.46
2018-05-15T08:31:31.698Z,935.49
2018-05-15T08:32:31.689Z,935.50
2018-05-15T08:33:31.679Z,935.48
2018-05-15T08:34:31.672Z,935.55
2018-05-15T08:35:31.664Z,935.59
2018-05-15T08:36:31.656Z,935.61
2018-05-15T08:37:31.655Z,935.65
2018-05-15T08:38:31.637Z,935.67
2018-05-15T08:39:31.631Z,935.68
2018-05-15T08:40:31.622Z,935.69
2018-05-15T08:41:31.612Z,935.72
2018-05-15T08:42:31.604Z,935.69
2018-05-15T08:43:31.700Z,935.68
2018-05-15T08:44:31.588Z,935.67
2018-05-15T08:45:31.580Z,935.65
2018-05-15T08:46:31.572Z,935.68
2018-05-15T08:47:31.563Z,935.65
2018-05-15T08:48:31.554Z,935.59
2018-05-15T08:49:31.547Z,935.66
2018-05-15T08:50:31.537Z,935.67
2018-05-15T08:51:31.585Z,935.63
2018-05-15T08:52:31.520Z,935.66
2018-05-15T08:53:31.513Z,935.70
2018-05-15T08:54:31.503Z,935.69
2018-05-15T08:55:31.595Z,935.71
2018-05-15T08:56:31.486Z,935.75
2018-05-15T08:57:31.479Z,935.74
2018-05-15T08:58:31.469Z,935.74
2018-05-15T08:59:31.461Z,935.78
2018-05-15T09:00:31.453Z,935.77
2018-05-15T09:01:31.544Z,935.78
2018-05-15T09:02:31.435Z,935.80
2018-05-15T09:03:31.427Z,935.78
2018-05-15T09:04:31.419Z,935.82
2018-05-15T09:05:31.418Z,935.84
2018-05-15T09:06:31.401Z,935.90
2018-05-15T09:07:31.393Z,935.90
2018-05-15T09:08:31.385Z,935.92
2018-05-15T09:09:31.377Z,935.95
2018-05-15T09:10:31.368Z,935.97
2018-05-15T09:11:31.362Z,935.97
2018-05-15T09:12:31.350Z,935.98
2018-05-15T09:13:31.343Z,936.04
2018-05-15T09:14:31.334Z,936.07
2018-05-15T09:15:31.324Z,936.06
2018-05-15T09:16:31.317Z,936.11
2018-05-15T09:17:31.313Z,936.10
2018-05-15T09:18:31.301Z,936.10
2018-05-15T09:19:31.291Z,936.12
2018-05-15T09:20:31.282Z,936.13
2018-05-15T09:21:31.275Z,936.16
2018-05-15T09:22:31.266Z,936.17
2018-05-15T09:23:31.258Z,936.15
2018-05-15T09:24:31.250Z,936.19
2018-05-15T09:25:31.339Z,936.17
2018-05-15T09:26:31.231Z,936.18
2018-05-15T09:27:31.224Z,936.17
2018-05-15T09:28:31.215Z,936.19
2018-05-15T09:29:31.207Z,936.21
2018-05-15T09:30:31.197Z,936.21
2018-05-15T09:31:31.189Z,936.21
2018-05-15T09:32:31.180Z,936.22
2018-05-15T09:33:31.174Z,936.24
2018-05-15T09:34:31.162Z,936.22
2018-05-15T09:35:31.154Z,936.22
2018-05-15T09:36:31.228Z,936.22
2018-05-15T09:37:31.137Z,936.28
2018-05-15T09:38:31.131Z,936.28
2018-05-15T09:39:31.120Z,936.31
2018-05-15T09:40:31.111Z,936.33
2018-05-15T09:41:31.176Z,936.38
2018-05-15T09:42:31.094Z,936.39
2018-05-15T09:43:31.103Z,936.38
2018-05-15T09:44:31.077Z,936.39
2018-05-15T09:45:31.069Z,936.41
2018-05-15T09:46:31.059Z,936.44
2018-05-15T09:47:31.055Z,936.45
2018-05-15T09:48:31.041Z,936.45
2018-05-15T09:49:31.135Z,936.42
2018-05-15T09:50:31.026Z,936.42
2018-05-15T09:51:31.016Z,936.46
2018-05-15T09:52:31.009Z,936.43
2018-05-15T09:53:31.001Z,936.46
2018-05-15T09:54:30.990Z,936.45
2018-05-15T09:55:31.183Z,936.44
2018-05-15T09:56:30.975Z,936.44
2018-05-15T09:57:30.966Z,936.43
2018-05-15T09:58:30.958Z,936.47
2018-05-15T09:59:30.949Z,936.45
2018-05-15T10:00:30.943Z,936.49
2018-05-15T10:01:30.933Z,936.48
2018-05-15T10:02:30.924Z,936.54
2018-05-15T10:03:30.915Z,936.52
2018-05-15T10:04:30.907Z,936.53
2018-05-15T10:05:30.899Z,936.54
2018-05-15T10:06:30.889Z,936.50
2018-05-15T10:07:31.070Z,936.52
2018-05-15T10:08:30.874Z,936.51
2018-05-15T10:09:30.865Z,936.54
2018-05-15T10:10:30.861Z,936.59
2018-05-15T10:11:30.849Z,936.58
2018-05-15T10:12:30.841Z,936.57
2018-05-15T10:13:30.932Z,936.57
2018-05-15T10:14:30.822Z,936.58
2018-05-15T10:15:30.816Z,936.65
2018-05-15T10:16:30.812Z,936.64
2018-05-15T10:17:30.798Z,936.63
2018-05-15T10:18:30.792Z,936.64
2018-05-15T10:19:30.781Z,936.63
2018-05-15T10:20:30.774Z,936.61
2018-05-15T10:21:30.766Z,936.60
2018-05-15T10:22:30.755Z,936.63
2018-05-15T10:23:30.750Z,936.67
2018-05-15T10:24:30.740Z,936.65
2018-05-15T10:25:30.732Z,936.66
2018-05-15T10:26:30.724Z,936.65
2018-05-15T10:27:30.714Z,936.64
2018-05-15T10:28:30.708Z,936.63
2018-05-15T10:29:30.698Z,936.63
2018-05-15T10:30:30.688Z,936.60
2018-05-15T10:31:30.681Z,936.60
2018-05-15T10:32:30.672Z,936.61
2018-05-15T10:33:30.664Z,936.62
2018-05-15T10:34:30.653Z,936.60
2018-05-15T10:35:30.648Z,936.62
2018-05-15T10:36:30.637Z,936.60
2018-05-15T10:37:30.730Z,936.58
2018-05-15T10:38:30.620Z,936.61
2018-05-15T10:39:30.610Z,936.58
2018-05-15T10:40:30.606Z,936.62
2018-05-15T10:41:30.595Z,936.60
2018-05-15T10:42:30.586Z,936.61
2018-05-15T10:43:30.577Z,936.59
2018-05-15T10:44:30.569Z,936.59
2018-05-15T10:45:30.561Z,936.64
2018-05-15T10:46:30.552Z,936.60
2018-05-15T10:47:30.543Z,936.60
2018-05-15T10:48:30.536Z,936.62
2018-05-15T10:49:30.627Z,936.63
2018-05-15T10:50:30.516Z,936.62
2018-05-15T10:51:30.510Z,936.59
2018-05-15T10:52:30.500Z,936.59
2018-05-15T10:53:30.493Z,936.60
2018-05-15T10:54:30.486Z,936.58
2018-05-15T10:55:30.577Z,936.59
2018-05-15T10:56:30.467Z,936.57
2018-05-15T10:57:30.461Z,936.60
2018-05-15T10:58:30.450Z,936.60
2018-05-15T10:59:30.457Z,936.56
2018-05-15T11:00:30.434Z,936.58
2018-05-15T11:01:30.426Z,936.59
2018-05-15T11:02:30.417Z,936.59
2018-05-15T11:03:30.408Z,936.58
2018-05-15T11:04:30.400Z,936.60
2018-05-15T11:05:30.392Z,936.64
2018-05-15T11:06:30.383Z,936.62
2018-05-15T11:07:30.375Z,936.65
2018-05-15T11:08:30.367Z,936.67
2018-05-15T11:09:30.360Z,936.69
2018-05-15T11:10:30.353Z,936.67
2018-05-15T11:11:30.339Z,936.67
2018-05-15T11:12:30.333Z,936.68
2018-05-15T11:13:30.425Z,936.73
2018-05-15T11:14:30.316Z,936.73
2018-05-15T11:15:30.311Z,936.69
2018-05-15T11:16:30.299Z,936.72
2018-05-15T11:17:30.292Z,936.71
2018-05-15T11:18:30.282Z,936.67
2018-05-15T11:19:30.275Z,936.66
2018-05-15T11:20:30.266Z,936.62
2018-05-15T11:21:30.262Z,936.65
2018-05-15T11:22:30.248Z,936.64
2018-05-15T11:23:30.242Z,936.68
2018-05-15T11:24:30.279Z,936.69
2018-05-15T11:25:30.427Z,936.70
2018-05-15T11:26:30.220Z,936.69
2018-05-15T11:27:30.211Z,936.72
2018-05-15T11:28:30.204Z,936.73
2018-05-15T11:29:30.285Z,936.77
2018-05-15T11:30:30.232Z,936.74
2018-05-15T11:31:30.179Z,936.75
2018-05-15T11:32:30.171Z,936.77
2018-05-15T11:33:30.165Z,936.78
2018-05-15T11:34:30.156Z,936.77
2018-05-15T11:35:30.154Z,936.78
2018-05-15T11:36:30.142Z,936.79
2018-05-15T11:37:30.134Z,936.79
2018-05-15T11:38:30.125Z,936.76
2018-05-15T11:39:30.118Z,936.79
2018-05-15T11:40:30.114Z,936.78
2018-05-15T11:41:30.133Z,936.81
2018-05-15T11:42:30.100Z,936.79
2018-05-15T11:43:30.089Z,936.80
2018-05-15T11:44:30.081Z,936.82
2018-05-15T11:45:30.074Z,936.84
2018-05-15T11:46:30.066Z,936.82
2018-05-15T11:47:30.082Z,936.80
2018-05-15T11:48:30.441Z,936.82
2018-05-15T11:49:30.761Z,936.81
2018-05-15T11:50:30.582Z,936.84
2018-05-15T11:51:30.781Z,936.85
2018-05-15T11:52:30.781Z,936.84
2018-05-15T11:53:30.015Z,936.83
2018-05-15T11:54:30.009Z,936.80
2018-05-15T11:55:35.292Z,936.83
2018-05-15T11:56:29.995Z,936.86
2018-05-15T11:57:29.989Z,936.87
2018-05-15T11:58:29.978Z,936.89
2018-05-15T11:59:29.978Z,936.87
2018-05-15T12:00:29.964Z,936.87
2018-05-15T12:01:30.057Z,936.88
2018-05-15T12:02:30.008Z,936.87
2018-05-15T12:03:29.942Z,936.91
2018-05-15T12:04:29.935Z,936.95
2018-05-15T12:05:29.929Z,936.92
2018-05-15T12:06:29.970Z,936.91
2018-05-15T12:07:29.914Z,936.96
2018-05-15T12:08:29.907Z,936.97
2018-05-15T12:09:29.901Z,937.00
2018-05-15T12:10:29.933Z,936.96
2018-05-15T12:11:29.885Z,936.96
2018-05-15T12:12:29.881Z,936.91
2018-05-15T12:13:29.874Z,936.91
2018-05-15T12:14:29.868Z,936.95
2018-05-15T12:15:29.860Z,936.91
2018-05-15T12:16:29.856Z,936.93
2018-05-15T12:17:29.847Z,936.95
2018-05-15T12:18:29.852Z,936.96
2018-05-15T12:19:29.832Z,936.97
2018-05-15T12:20:29.828Z,936.97
2018-05-15T12:21:29.818Z,936.99
2018-05-15T12:22:29.812Z,936.98
2018-05-15T12:23:29.804Z,936.95
2018-05-15T12:24:29.805Z,936.99
2018-05-15T12:25:29.790Z,937.00
2018-05-15T12:26:29.783Z,936.99
2018-05-15T12:27:29.776Z,936.95
2018-05-15T12:28:29.775Z,936.94